sensor_id;sensor_type;location;lat;lon;timestamp;P1;durP1;ratioP1;P2;durP2;ratioP2
31061;SDS011;17724;53.546;9.974;2023-08-31T00:00:40;7.63;;;5.90;;
31061;SDS011;17724;53.546;9.974;2023-08-31T00:04:41;7.17;;;5.20;;
31061;SDS011;17724;53.546;9.974;2023-08-31T00:08:42;8.37;;;5.70;;
31061;SDS011;17724;53.546;9.974;2023-08-31T00:12:42;7.17;;;5.23;;
31061;SDS011;17724;53.546;9.974;2023-08-31T00:16:43;7.70;;;5.53;;
31061;SDS011;17724;53.546;9.974;2023-08-31T00:20:46;6.97;;;4.90;;
31061;SDS011;17724;53.546;9.974;2023-08-31T00:24:46;8.03;;;6.03;;
31061;SDS011;17724;53.546;9.974;2023-08-31T00:28:46;8.03;;;6.10;;
31061;SDS011;17724;53.546;9.974;2023-08-31T00:32:47;7.17;;;4.70;;
31061;SDS011;17724;53.546;9.974;2023-08-31T00:36:54;6.40;;;4.97;;
31061;SDS011;17724;53.546;9.974;2023-08-31T00:40:55;8.10;;;5.27;;
31061;SDS011;17724;53.546;9.974;2023-08-31T00:44:55;7.73;;;5.83;;
31061;SDS011;17724;53.546;9.974;2023-08-31T00:48:56;7.30;;;5.70;;
31061;SDS011;17724;53.546;9.974;2023-08-31T00:52:58;7.20;;;4.73;;
31061;SDS011;17724;53.546;9.974;2023-08-31T00:56:58;6.90;;;4.83;;
31061;SDS011;17724;53.546;9.974;2023-08-31T01:05:29;7.33;;;4.60;;
31061;SDS011;17724;53.546;9.974;2023-08-31T01:09:45;7.33;;;5.27;;
31061;SDS011;17724;53.546;9.974;2023-08-31T01:14:04;7.37;;;5.00;;
31061;SDS011;17724;53.546;9.974;2023-08-31T01:18:19;6.60;;;4.37;;
31061;SDS011;17724;53.546;9.974;2023-08-31T01:22:33;7.87;;;4.83;;
31061;SDS011;17724;53.546;9.974;2023-08-31T01:26:42;6.93;;;4.80;;
31061;SDS011;17724;53.546;9.974;2023-08-31T01:30:45;7.67;;;4.70;;
31061;SDS011;17724;53.546;9.974;2023-08-31T01:34:45;9.93;;;5.27;;
31061;SDS011;17724;53.546;9.974;2023-08-31T01:38:47;6.63;;;4.47;;
31061;SDS011;17724;53.546;9.974;2023-08-31T01:42:50;6.23;;;4.20;;
31061;SDS011;17724;53.546;9.974;2023-08-31T01:46:52;7.90;;;4.57;;
31061;SDS011;17724;53.546;9.974;2023-08-31T01:50:57;7.27;;;5.00;;
31061;SDS011;17724;53.546;9.974;2023-08-31T01:55:00;7.93;;;5.60;;
31061;SDS011;17724;53.546;9.974;2023-08-31T01:59:01;7.50;;;5.03;;
31061;SDS011;17724;53.546;9.974;2023-08-31T02:03:02;11.73;;;5.83;;
31061;SDS011;17724;53.546;9.974;2023-08-31T02:07:03;9.20;;;5.20;;
31061;SDS011;17724;53.546;9.974;2023-08-31T02:11:03;8.70;;;5.70;;
31061;SDS011;17724;53.546;9.974;2023-08-31T02:15:04;8.70;;;5.40;;
31061;SDS011;17724;53.546;9.974;2023-08-31T02:19:06;7.67;;;5.10;;
31061;SDS011;17724;53.546;9.974;2023-08-31T02:23:06;7.53;;;5.10;;
31061;SDS011;17724;53.546;9.974;2023-08-31T02:27:07;7.13;;;4.70;;
31061;SDS011;17724;53.546;9.974;2023-08-31T02:31:09;8.20;;;4.53;;
31061;SDS011;17724;53.546;9.974;2023-08-31T02:35:10;8.63;;;5.33;;
31061;SDS011;17724;53.546;9.974;2023-08-31T02:39:12;6.77;;;4.30;;
31061;SDS011;17724;53.546;9.974;2023-08-31T02:43:13;7.27;;;3.60;;
31061;SDS011;17724;53.546;9.974;2023-08-31T02:47:15;6.77;;;3.67;;
31061;SDS011;17724;53.546;9.974;2023-08-31T02:51:15;8.77;;;4.50;;
31061;SDS011;17724;53.546;9.974;2023-08-31T02:55:16;8.10;;;4.17;;
31061;SDS011;17724;53.546;9.974;2023-08-31T02:59:16;7.20;;;3.97;;
31061;SDS011;17724;53.546;9.974;2023-08-31T03:03:17;7.13;;;3.80;;
31061;SDS011;17724;53.546;9.974;2023-08-31T03:07:18;6.30;;;3.53;;
31061;SDS011;17724;53.546;9.974;2023-08-31T03:11:19;8.20;;;3.80;;
31061;SDS011;17724;53.546;9.974;2023-08-31T03:15:19;7.67;;;4.17;;
31061;SDS011;17724;53.546;9.974;2023-08-31T03:19:19;7.40;;;3.80;;
31061;SDS011;17724;53.546;9.974;2023-08-31T03:23:20;8.33;;;3.83;;
31061;SDS011;17724;53.546;9.974;2023-08-31T03:27:20;8.77;;;3.57;;
31061;SDS011;17724;53.546;9.974;2023-08-31T03:31:21;8.07;;;3.60;;
31061;SDS011;17724;53.546;9.974;2023-08-31T03:35:21;6.67;;;4.00;;
31061;SDS011;17724;53.546;9.974;2023-08-31T03:39:27;6.83;;;3.30;;
31061;SDS011;17724;53.546;9.974;2023-08-31T03:43:28;6.60;;;3.33;;
31061;SDS011;17724;53.546;9.974;2023-08-31T03:47:28;8.70;;;4.10;;
31061;SDS011;17724;53.546;9.974;2023-08-31T03:51:29;6.17;;;3.03;;
31061;SDS011;17724;53.546;9.974;2023-08-31T03:55:29;7.27;;;3.30;;
31061;SDS011;17724;53.546;9.974;2023-08-31T03:59:31;6.67;;;3.37;;
31061;SDS011;17724;53.546;9.974;2023-08-31T04:03:31;7.50;;;3.50;;
31061;SDS011;17724;53.546;9.974;2023-08-31T04:07:33;6.90;;;3.50;;
31061;SDS011;17724;53.546;9.974;2023-08-31T04:11:35;8.33;;;3.40;;
31061;SDS011;17724;53.546;9.974;2023-08-31T04:15:37;7.33;;;3.67;;
31061;SDS011;17724;53.546;9.974;2023-08-31T04:19:37;7.70;;;3.80;;
31061;SDS011;17724;53.546;9.974;2023-08-31T04:23:39;6.97;;;3.23;;
31061;SDS011;17724;53.546;9.974;2023-08-31T04:27:39;6.70;;;3.37;;
31061;SDS011;17724;53.546;9.974;2023-08-31T04:31:40;6.43;;;3.50;;
31061;SDS011;17724;53.546;9.974;2023-08-31T04:35:40;7.17;;;3.77;;
31061;SDS011;17724;53.546;9.974;2023-08-31T04:39:41;7.63;;;3.77;;
31061;SDS011;17724;53.546;9.974;2023-08-31T04:43:42;7.13;;;3.37;;
31061;SDS011;17724;53.546;9.974;2023-08-31T04:47:42;8.20;;;3.90;;
31061;SDS011;17724;53.546;9.974;2023-08-31T04:51:43;7.50;;;3.70;;
31061;SDS011;17724;53.546;9.974;2023-08-31T04:55:44;6.63;;;3.30;;
31061;SDS011;17724;53.546;9.974;2023-08-31T04:59:45;7.13;;;3.10;;
31061;SDS011;17724;53.546;9.974;2023-08-31T05:03:45;8.60;;;3.47;;
31061;SDS011;17724;53.546;9.974;2023-08-31T05:07:46;6.77;;;4.00;;
31061;SDS011;17724;53.546;9.974;2023-08-31T05:11:46;6.30;;;3.50;;
31061;SDS011;17724;53.546;9.974;2023-08-31T05:15:47;6.73;;;3.80;;
31061;SDS011;17724;53.546;9.974;2023-08-31T05:19:47;9.73;;;4.60;;
31061;SDS011;17724;53.546;9.974;2023-08-31T05:23:48;6.50;;;3.33;;
31061;SDS011;17724;53.546;9.974;2023-08-31T05:27:48;7.10;;;4.17;;
31061;SDS011;17724;53.546;9.974;2023-08-31T05:31:48;9.33;;;3.80;;
31061;SDS011;17724;53.546;9.974;2023-08-31T05:35:49;8.97;;;3.27;;
31061;SDS011;17724;53.546;9.974;2023-08-31T05:39:50;8.40;;;3.63;;
31061;SDS011;17724;53.546;9.974;2023-08-31T05:43:51;7.40;;;3.77;;
31061;SDS011;17724;53.546;9.974;2023-08-31T05:47:52;7.30;;;3.50;;
31061;SDS011;17724;53.546;9.974;2023-08-31T05:51:52;7.23;;;3.00;;
31061;SDS011;17724;53.546;9.974;2023-08-31T05:55:54;7.93;;;2.93;;
31061;SDS011;17724;53.546;9.974;2023-08-31T06:00:03;6.77;;;3.27;;
31061;SDS011;17724;53.546;9.974;2023-08-31T06:04:12;8.00;;;3.53;;
31061;SDS011;17724;53.546;9.974;2023-08-31T06:08:13;7.67;;;2.93;;
31061;SDS011;17724;53.546;9.974;2023-08-31T06:12:13;7.87;;;3.17;;
31061;SDS011;17724;53.546;9.974;2023-08-31T06:16:14;6.57;;;3.50;;
31061;SDS011;17724;53.546;9.974;2023-08-31T06:20:14;6.33;;;3.37;;
31061;SDS011;17724;53.546;9.974;2023-08-31T06:24:15;8.10;;;3.90;;
31061;SDS011;17724;53.546;9.974;2023-08-31T06:28:15;9.93;;;4.03;;
31061;SDS011;17724;53.546;9.974;2023-08-31T06:32:17;7.93;;;3.60;;
31061;SDS011;17724;53.546;9.974;2023-08-31T06:36:18;7.80;;;4.33;;
31061;SDS011;17724;53.546;9.974;2023-08-31T06:40:19;8.30;;;3.17;;
31061;SDS011;17724;53.546;9.974;2023-08-31T06:44:19;7.83;;;3.20;;
31061;SDS011;17724;53.546;9.974;2023-08-31T06:48:20;6.23;;;3.30;;
31061;SDS011;17724;53.546;9.974;2023-08-31T06:52:20;8.03;;;3.70;;
31061;SDS011;17724;53.546;9.974;2023-08-31T06:56:21;5.90;;;2.90;;
31061;SDS011;17724;53.546;9.974;2023-08-31T07:00:21;12.50;;;10.00;;
31061;SDS011;17724;53.546;9.974;2023-08-31T07:04:22;7.60;;;4.10;;
31061;SDS011;17724;53.546;9.974;2023-08-31T07:08:22;6.37;;;2.90;;
31061;SDS011;17724;53.546;9.974;2023-08-31T07:12:22;6.43;;;3.10;;
31061;SDS011;17724;53.546;9.974;2023-08-31T07:16:23;6.80;;;2.60;;
31061;SDS011;17724;53.546;9.974;2023-08-31T07:20:23;7.50;;;2.63;;
31061;SDS011;17724;53.546;9.974;2023-08-31T07:24:24;6.50;;;2.47;;
31061;SDS011;17724;53.546;9.974;2023-08-31T07:28:25;7.10;;;2.17;;
31061;SDS011;17724;53.546;9.974;2023-08-31T07:32:25;6.87;;;2.40;;
31061;SDS011;17724;53.546;9.974;2023-08-31T07:36:25;5.87;;;2.13;;
31061;SDS011;17724;53.546;9.974;2023-08-31T07:40:26;5.53;;;2.10;;
31061;SDS011;17724;53.546;9.974;2023-08-31T07:44:26;5.40;;;2.40;;
31061;SDS011;17724;53.546;9.974;2023-08-31T07:48:27;5.23;;;2.20;;
31061;SDS011;17724;53.546;9.974;2023-08-31T07:52:27;5.80;;;2.63;;
31061;SDS011;17724;53.546;9.974;2023-08-31T07:56:28;6.00;;;2.33;;
31061;SDS011;17724;53.546;9.974;2023-08-31T08:00:28;5.80;;;2.40;;
31061;SDS011;17724;53.546;9.974;2023-08-31T08:04:29;5.47;;;2.43;;
31061;SDS011;17724;53.546;9.974;2023-08-31T08:08:29;6.83;;;2.70;;
31061;SDS011;17724;53.546;9.974;2023-08-31T08:12:39;9.50;;;4.10;;
31061;SDS011;17724;53.546;9.974;2023-08-31T08:16:43;7.33;;;2.87;;
31061;SDS011;17724;53.546;9.974;2023-08-31T08:20:46;5.50;;;2.23;;
31061;SDS011;17724;53.546;9.974;2023-08-31T08:24:47;5.10;;;1.93;;
31061;SDS011;17724;53.546;9.974;2023-08-31T08:28:48;5.10;;;2.00;;
31061;SDS011;17724;53.546;9.974;2023-08-31T08:32:48;7.27;;;1.80;;
31061;SDS011;17724;53.546;9.974;2023-08-31T08:36:49;5.83;;;1.60;;
31061;SDS011;17724;53.546;9.974;2023-08-31T08:40:49;4.90;;;2.00;;
31061;SDS011;17724;53.546;9.974;2023-08-31T08:44:50;6.10;;;2.63;;
31061;SDS011;17724;53.546;9.974;2023-08-31T08:48:50;6.43;;;2.50;;
31061;SDS011;17724;53.546;9.974;2023-08-31T08:52:51;6.50;;;2.43;;
31061;SDS011;17724;53.546;9.974;2023-08-31T08:56:52;5.40;;;2.40;;
31061;SDS011;17724;53.546;9.974;2023-08-31T09:00:54;5.77;;;1.87;;
31061;SDS011;17724;53.546;9.974;2023-08-31T09:04:56;6.13;;;1.90;;
31061;SDS011;17724;53.546;9.974;2023-08-31T09:08:57;9.70;;;2.50;;
31061;SDS011;17724;53.546;9.974;2023-08-31T09:12:58;9.63;;;2.47;;
31061;SDS011;17724;53.546;9.974;2023-08-31T09:17:00;6.23;;;2.97;;
31061;SDS011;17724;53.546;9.974;2023-08-31T09:21:03;8.43;;;3.57;;
31061;SDS011;17724;53.546;9.974;2023-08-31T09:25:04;5.77;;;2.33;;
31061;SDS011;17724;53.546;9.974;2023-08-31T09:29:05;6.30;;;2.57;;
31061;SDS011;17724;53.546;9.974;2023-08-31T09:33:11;5.37;;;2.70;;
31061;SDS011;17724;53.546;9.974;2023-08-31T09:37:16;6.83;;;2.67;;
31061;SDS011;17724;53.546;9.974;2023-08-31T09:41:17;6.10;;;2.60;;
31061;SDS011;17724;53.546;9.974;2023-08-31T09:45:50;6.47;;;2.73;;
31061;SDS011;17724;53.546;9.974;2023-08-31T09:49:44;5.97;;;2.70;;
31061;SDS011;17724;53.546;9.974;2023-08-31T10:15:15;7.70;;;3.90;;
31061;SDS011;17724;53.546;9.974;2023-08-31T10:19:17;6.03;;;3.00;;
31061;SDS011;17724;53.546;9.974;2023-08-31T10:23:17;6.07;;;2.77;;
31061;SDS011;17724;53.546;9.974;2023-08-31T10:27:18;6.57;;;3.60;;
31061;SDS011;17724;53.546;9.974;2023-08-31T10:31:19;5.00;;;2.40;;
31061;SDS011;17724;53.546;9.974;2023-08-31T10:35:23;8.30;;;3.50;;
31061;SDS011;17724;53.546;9.974;2023-08-31T10:40:06;8.93;;;4.37;;
31061;SDS011;17724;53.546;9.974;2023-08-31T10:48:22;6.30;;;3.67;;
31061;SDS011;17724;53.546;9.974;2023-08-31T10:52:22;9.53;;;7.27;;
31061;SDS011;17724;53.546;9.974;2023-08-31T10:56:28;39.10;;;35.13;;
31061;SDS011;17724;53.546;9.974;2023-08-31T11:01:03;123.57;;;111.13;;
31061;SDS011;17724;53.546;9.974;2023-08-31T11:05:00;60.67;;;54.07;;
31061;SDS011;17724;53.546;9.974;2023-08-31T11:09:05;55.53;;;49.70;;
31061;SDS011;17724;53.546;9.974;2023-08-31T11:13:06;25.17;;;20.97;;
31061;SDS011;17724;53.546;9.974;2023-08-31T11:17:06;53.03;;;47.40;;
31061;SDS011;17724;53.546;9.974;2023-08-31T11:21:07;50.77;;;45.23;;
31061;SDS011;17724;53.546;9.974;2023-08-31T11:25:11;41.20;;;36.77;;
31061;SDS011;17724;53.546;9.974;2023-08-31T11:29:13;8.40;;;4.43;;
31061;SDS011;17724;53.546;9.974;2023-08-31T11:33:14;39.70;;;32.90;;
31061;SDS011;17724;53.546;9.974;2023-08-31T11:37:14;14.50;;;11.43;;
31061;SDS011;17724;53.546;9.974;2023-08-31T11:41:20;20.37;;;15.80;;
31061;SDS011;17724;53.546;9.974;2023-08-31T11:45:20;11.70;;;7.47;;
31061;SDS011;17724;53.546;9.974;2023-08-31T11:49:23;8.60;;;5.90;;
31061;SDS011;17724;53.546;9.974;2023-08-31T11:53:26;11.97;;;7.00;;
31061;SDS011;17724;53.546;9.974;2023-08-31T11:57:27;8.80;;;3.80;;
31061;SDS011;17724;53.546;9.974;2023-08-31T12:01:30;10.40;;;6.40;;
31061;SDS011;17724;53.546;9.974;2023-08-31T12:05:44;13.07;;;8.67;;
31061;SDS011;17724;53.546;9.974;2023-08-31T12:09:45;18.53;;;14.47;;
31061;SDS011;17724;53.546;9.974;2023-08-31T12:13:46;12.53;;;6.50;;
31061;SDS011;17724;53.546;9.974;2023-08-31T12:17:47;14.80;;;11.63;;
31061;SDS011;17724;53.546;9.974;2023-08-31T12:21:54;11.87;;;6.77;;
31061;SDS011;17724;53.546;9.974;2023-08-31T12:25:54;14.87;;;9.53;;
31061;SDS011;17724;53.546;9.974;2023-08-31T12:29:55;10.50;;;5.20;;
31061;SDS011;17724;53.546;9.974;2023-08-31T12:34:00;10.07;;;5.90;;
31061;SDS011;17724;53.546;9.974;2023-08-31T12:38:04;9.00;;;4.10;;
31061;SDS011;17724;53.546;9.974;2023-08-31T12:42:05;14.90;;;8.73;;
31061;SDS011;17724;53.546;9.974;2023-08-31T12:46:06;14.30;;;6.57;;
31061;SDS011;17724;53.546;9.974;2023-08-31T12:50:06;6.33;;;2.27;;
31061;SDS011;17724;53.546;9.974;2023-08-31T12:54:07;20.70;;;14.90;;
31061;SDS011;17724;53.546;9.974;2023-08-31T12:58:08;15.20;;;8.30;;
31061;SDS011;17724;53.546;9.974;2023-08-31T13:02:08;11.80;;;6.50;;
31061;SDS011;17724;53.546;9.974;2023-08-31T13:06:12;16.13;;;12.67;;
31061;SDS011;17724;53.546;9.974;2023-08-31T13:10:12;16.40;;;8.10;;
31061;SDS011;17724;53.546;9.974;2023-08-31T13:14:13;18.20;;;11.13;;
31061;SDS011;17724;53.546;9.974;2023-08-31T13:18:14;17.07;;;9.37;;
31061;SDS011;17724;53.546;9.974;2023-08-31T13:22:14;8.40;;;4.30;;
31061;SDS011;17724;53.546;9.974;2023-08-31T13:26:16;14.87;;;7.57;;
31061;SDS011;17724;53.546;9.974;2023-08-31T13:30:17;11.60;;;6.17;;
31061;SDS011;17724;53.546;9.974;2023-08-31T13:34:17;11.70;;;7.17;;
31061;SDS011;17724;53.546;9.974;2023-08-31T13:38:18;10.17;;;5.80;;
31061;SDS011;17724;53.546;9.974;2023-08-31T13:42:22;22.80;;;14.40;;
31061;SDS011;17724;53.546;9.974;2023-08-31T13:46:22;12.13;;;7.70;;
31061;SDS011;17724;53.546;9.974;2023-08-31T13:50:23;12.00;;;6.57;;
31061;SDS011;17724;53.546;9.974;2023-08-31T13:54:25;12.17;;;8.33;;
31061;SDS011;17724;53.546;9.974;2023-08-31T13:58:27;8.67;;;4.47;;
31061;SDS011;17724;53.546;9.974;2023-08-31T14:02:27;17.73;;;11.03;;
31061;SDS011;17724;53.546;9.974;2023-08-31T14:06:28;11.57;;;6.33;;
31061;SDS011;17724;53.546;9.974;2023-08-31T14:10:28;9.20;;;3.03;;
31061;SDS011;17724;53.546;9.974;2023-08-31T14:14:29;14.30;;;7.00;;
31061;SDS011;17724;53.546;9.974;2023-08-31T14:18:29;12.37;;;6.70;;
31061;SDS011;17724;53.546;9.974;2023-08-31T14:22:31;5.10;;;2.07;;
31061;SDS011;17724;53.546;9.974;2023-08-31T14:26:32;6.70;;;2.80;;
31061;SDS011;17724;53.546;9.974;2023-08-31T14:30:35;8.50;;;4.30;;
31061;SDS011;17724;53.546;9.974;2023-08-31T14:34:36;10.03;;;4.47;;
31061;SDS011;17724;53.546;9.974;2023-08-31T14:38:37;8.13;;;3.90;;
31061;SDS011;17724;53.546;9.974;2023-08-31T14:42:37;14.93;;;9.17;;
31061;SDS011;17724;53.546;9.974;2023-08-31T14:46:38;11.27;;;5.60;;
31061;SDS011;17724;53.546;9.974;2023-08-31T14:50:42;12.10;;;7.00;;
31061;SDS011;17724;53.546;9.974;2023-08-31T14:54:43;9.07;;;5.07;;
31061;SDS011;17724;53.546;9.974;2023-08-31T14:58:47;18.20;;;9.93;;
31061;SDS011;17724;53.546;9.974;2023-08-31T15:02:48;16.80;;;9.97;;
31061;SDS011;17724;53.546;9.974;2023-08-31T15:06:49;17.77;;;9.90;;
31061;SDS011;17724;53.546;9.974;2023-08-31T15:10:50;11.50;;;7.30;;
31061;SDS011;17724;53.546;9.974;2023-08-31T15:14:50;11.57;;;5.30;;
31061;SDS011;17724;53.546;9.974;2023-08-31T15:18:50;10.90;;;6.40;;
31061;SDS011;17724;53.546;9.974;2023-08-31T15:22:52;7.53;;;3.40;;
31061;SDS011;17724;53.546;9.974;2023-08-31T15:26:53;10.90;;;8.00;;
31061;SDS011;17724;53.546;9.974;2023-08-31T15:30:54;14.87;;;9.00;;
31061;SDS011;17724;53.546;9.974;2023-08-31T15:34:55;15.70;;;12.33;;
31061;SDS011;17724;53.546;9.974;2023-08-31T15:38:55;13.13;;;9.60;;
31061;SDS011;17724;53.546;9.974;2023-08-31T15:42:56;29.63;;;24.60;;
31061;SDS011;17724;53.546;9.974;2023-08-31T15:46:56;37.87;;;33.77;;
31061;SDS011;17724;53.546;9.974;2023-08-31T15:50:57;11.63;;;8.33;;
31061;SDS011;17724;53.546;9.974;2023-08-31T15:55:00;11.33;;;7.40;;
31061;SDS011;17724;53.546;9.974;2023-08-31T15:59:03;13.43;;;11.30;;
31061;SDS011;17724;53.546;9.974;2023-08-31T16:03:04;13.53;;;6.80;;
31061;SDS011;17724;53.546;9.974;2023-08-31T16:07:06;9.33;;;5.70;;
31061;SDS011;17724;53.546;9.974;2023-08-31T16:11:06;18.70;;;16.60;;
31061;SDS011;17724;53.546;9.974;2023-08-31T16:15:07;38.83;;;33.20;;
31061;SDS011;17724;53.546;9.974;2023-08-31T16:19:08;31.73;;;24.07;;
31061;SDS011;17724;53.546;9.974;2023-08-31T16:23:09;55.73;;;49.67;;
31061;SDS011;17724;53.546;9.974;2023-08-31T16:27:09;12.90;;;10.50;;
31061;SDS011;17724;53.546;9.974;2023-08-31T16:31:10;18.13;;;13.07;;
31061;SDS011;17724;53.546;9.974;2023-08-31T16:35:12;11.80;;;8.10;;
31061;SDS011;17724;53.546;9.974;2023-08-31T16:39:14;14.30;;;12.53;;
31061;SDS011;17724;53.546;9.974;2023-08-31T16:43:14;10.63;;;8.40;;
31061;SDS011;17724;53.546;9.974;2023-08-31T16:47:15;43.03;;;34.63;;
31061;SDS011;17724;53.546;9.974;2023-08-31T16:51:15;34.13;;;30.47;;
31061;SDS011;17724;53.546;9.974;2023-08-31T16:55:17;22.20;;;17.77;;
31061;SDS011;17724;53.546;9.974;2023-08-31T16:59:17;14.33;;;10.90;;
31061;SDS011;17724;53.546;9.974;2023-08-31T17:03:18;8.03;;;4.37;;
31061;SDS011;17724;53.546;9.974;2023-08-31T17:07:18;6.53;;;3.10;;
31061;SDS011;17724;53.546;9.974;2023-08-31T17:11:19;14.80;;;8.77;;
31061;SDS011;17724;53.546;9.974;2023-08-31T17:15:19;32.47;;;28.53;;
31061;SDS011;17724;53.546;9.974;2023-08-31T17:19:20;7.63;;;4.43;;
31061;SDS011;17724;53.546;9.974;2023-08-31T17:23:20;18.57;;;13.90;;
31061;SDS011;17724;53.546;9.974;2023-08-31T17:27:21;8.57;;;4.20;;
31061;SDS011;17724;53.546;9.974;2023-08-31T17:31:21;14.30;;;8.40;;
31061;SDS011;17724;53.546;9.974;2023-08-31T17:35:22;13.10;;;8.83;;
31061;SDS011;17724;53.546;9.974;2023-08-31T17:39:22;14.00;;;11.13;;
31061;SDS011;17724;53.546;9.974;2023-08-31T17:43:23;11.97;;;7.43;;
31061;SDS011;17724;53.546;9.974;2023-08-31T17:47:23;13.80;;;8.87;;
31061;SDS011;17724;53.546;9.974;2023-08-31T17:51:24;10.57;;;6.70;;
31061;SDS011;17724;53.546;9.974;2023-08-31T17:55:24;14.67;;;8.40;;
31061;SDS011;17724;53.546;9.974;2023-08-31T17:59:26;37.80;;;31.47;;
31061;SDS011;17724;53.546;9.974;2023-08-31T18:03:27;35.80;;;31.50;;
31061;SDS011;17724;53.546;9.974;2023-08-31T18:07:27;14.60;;;10.67;;
31061;SDS011;17724;53.546;9.974;2023-08-31T18:11:28;15.97;;;10.43;;
31061;SDS011;17724;53.546;9.974;2023-08-31T18:15:28;31.90;;;22.10;;
31061;SDS011;17724;53.546;9.974;2023-08-31T18:19:29;16.07;;;11.17;;
31061;SDS011;17724;53.546;9.974;2023-08-31T18:23:30;12.60;;;7.87;;
31061;SDS011;17724;53.546;9.974;2023-08-31T18:27:31;11.67;;;6.40;;
31061;SDS011;17724;53.546;9.974;2023-08-31T18:31:32;13.40;;;7.80;;
31061;SDS011;17724;53.546;9.974;2023-08-31T18:35:33;16.40;;;10.73;;
31061;SDS011;17724;53.546;9.974;2023-08-31T18:39:33;13.60;;;7.60;;
31061;SDS011;17724;53.546;9.974;2023-08-31T18:43:34;9.93;;;4.70;;
31061;SDS011;17724;53.546;9.974;2023-08-31T18:47:34;14.23;;;6.90;;
31061;SDS011;17724;53.546;9.974;2023-08-31T18:51:36;13.77;;;7.10;;
31061;SDS011;17724;53.546;9.974;2023-08-31T18:55:40;10.67;;;5.80;;
31061;SDS011;17724;53.546;9.974;2023-08-31T18:59:41;11.50;;;7.47;;
31061;SDS011;17724;53.546;9.974;2023-08-31T19:03:41;15.50;;;9.17;;
31061;SDS011;17724;53.546;9.974;2023-08-31T19:07:42;30.53;;;27.27;;
31061;SDS011;17724;53.546;9.974;2023-08-31T19:11:43;37.70;;;30.53;;
31061;SDS011;17724;53.546;9.974;2023-08-31T19:15:43;21.77;;;16.80;;
31061;SDS011;17724;53.546;9.974;2023-08-31T19:19:44;19.43;;;11.80;;
31061;SDS011;17724;53.546;9.974;2023-08-31T19:23:44;18.83;;;12.97;;
31061;SDS011;17724;53.546;9.974;2023-08-31T19:27:45;80.20;;;72.77;;
31061;SDS011;17724;53.546;9.974;2023-08-31T19:31:48;34.20;;;27.20;;
31061;SDS011;17724;53.546;9.974;2023-08-31T19:35:48;51.60;;;46.10;;
31061;SDS011;17724;53.546;9.974;2023-08-31T19:39:49;21.23;;;16.57;;
31061;SDS011;17724;53.546;9.974;2023-08-31T19:43:49;65.97;;;59.07;;
31061;SDS011;17724;53.546;9.974;2023-08-31T19:47:50;27.17;;;23.10;;
31061;SDS011;17724;53.546;9.974;2023-08-31T19:51:53;30.27;;;25.13;;
31061;SDS011;17724;53.546;9.974;2023-08-31T19:55:53;16.30;;;11.67;;
31061;SDS011;17724;53.546;9.974;2023-08-31T19:59:54;13.77;;;10.50;;
31061;SDS011;17724;53.546;9.974;2023-08-31T20:03:54;8.53;;;5.77;;
31061;SDS011;17724;53.546;9.974;2023-08-31T20:07:55;10.50;;;6.10;;
31061;SDS011;17724;53.546;9.974;2023-08-31T20:11:56;9.10;;;3.90;;
31061;SDS011;17724;53.546;9.974;2023-08-31T20:16:00;7.30;;;4.20;;
31061;SDS011;17724;53.546;9.974;2023-08-31T20:20:03;7.37;;;3.50;;
31061;SDS011;17724;53.546;9.974;2023-08-31T20:24:04;6.83;;;1.90;;
31061;SDS011;17724;53.546;9.974;2023-08-31T20:28:04;7.33;;;4.30;;
31061;SDS011;17724;53.546;9.974;2023-08-31T20:32:06;5.53;;;2.50;;
31061;SDS011;17724;53.546;9.974;2023-08-31T20:36:07;5.63;;;2.10;;
31061;SDS011;17724;53.546;9.974;2023-08-31T20:40:10;5.90;;;1.90;;
31061;SDS011;17724;53.546;9.974;2023-08-31T20:44:12;5.03;;;2.03;;
31061;SDS011;17724;53.546;9.974;2023-08-31T20:48:12;6.87;;;1.93;;
31061;SDS011;17724;53.546;9.974;2023-08-31T20:52:13;5.53;;;2.10;;
31061;SDS011;17724;53.546;9.974;2023-08-31T20:56:17;5.67;;;2.10;;
31061;SDS011;17724;53.546;9.974;2023-08-31T21:00:20;5.83;;;1.77;;
31061;SDS011;17724;53.546;9.974;2023-08-31T21:04:21;6.13;;;1.90;;
31061;SDS011;17724;53.546;9.974;2023-08-31T21:08:21;6.13;;;2.30;;
31061;SDS011;17724;53.546;9.974;2023-08-31T21:12:26;4.80;;;1.50;;
31061;SDS011;17724;53.546;9.974;2023-08-31T21:16:27;4.57;;;1.70;;
31061;SDS011;17724;53.546;9.974;2023-08-31T21:20:32;5.63;;;1.50;;
31061;SDS011;17724;53.546;9.974;2023-08-31T21:24:33;5.80;;;1.70;;
31061;SDS011;17724;53.546;9.974;2023-08-31T21:28:34;5.47;;;1.60;;
31061;SDS011;17724;53.546;9.974;2023-08-31T21:32:34;5.60;;;1.90;;
31061;SDS011;17724;53.546;9.974;2023-08-31T21:36:35;5.93;;;1.50;;
31061;SDS011;17724;53.546;9.974;2023-08-31T21:40:42;4.20;;;1.20;;
31061;SDS011;17724;53.546;9.974;2023-08-31T21:44:49;5.60;;;1.67;;
31061;SDS011;17724;53.546;9.974;2023-08-31T21:48:49;4.70;;;1.33;;
31061;SDS011;17724;53.546;9.974;2023-08-31T21:52:52;4.90;;;1.43;;
31061;SDS011;17724;53.546;9.974;2023-08-31T21:56:53;6.20;;;1.73;;
31061;SDS011;17724;53.546;9.974;2023-08-31T22:00:55;6.10;;;2.30;;
31061;SDS011;17724;53.546;9.974;2023-08-31T22:04:56;5.37;;;1.60;;
31061;SDS011;17724;53.546;9.974;2023-08-31T22:08:58;5.27;;;1.70;;
31061;SDS011;17724;53.546;9.974;2023-08-31T22:12:58;6.13;;;2.33;;
31061;SDS011;17724;53.546;9.974;2023-08-31T22:16:59;6.20;;;2.13;;
31061;SDS011;17724;53.546;9.974;2023-08-31T22:21:01;5.37;;;1.40;;
31061;SDS011;17724;53.546;9.974;2023-08-31T22:25:01;4.67;;;1.60;;
31061;SDS011;17724;53.546;9.974;2023-08-31T22:29:04;4.37;;;1.40;;
31061;SDS011;17724;53.546;9.974;2023-08-31T22:33:05;4.67;;;2.03;;
31061;SDS011;17724;53.546;9.974;2023-08-31T22:37:08;5.37;;;1.40;;
31061;SDS011;17724;53.546;9.974;2023-08-31T22:41:10;7.07;;;1.53;;
31061;SDS011;17724;53.546;9.974;2023-08-31T22:45:10;5.70;;;1.80;;
31061;SDS011;17724;53.546;9.974;2023-08-31T22:49:11;6.53;;;1.93;;
31061;SDS011;17724;53.546;9.974;2023-08-31T22:53:12;8.23;;;1.97;;
31061;SDS011;17724;53.546;9.974;2023-08-31T22:57:13;5.50;;;1.50;;
31061;SDS011;17724;53.546;9.974;2023-08-31T23:01:13;6.10;;;2.20;;
31061;SDS011;17724;53.546;9.974;2023-08-31T23:05:14;6.30;;;1.90;;
31061;SDS011;17724;53.546;9.974;2023-08-31T23:09:14;5.13;;;1.70;;
31061;SDS011;17724;53.546;9.974;2023-08-31T23:13:15;6.93;;;1.93;;
31061;SDS011;17724;53.546;9.974;2023-08-31T23:17:15;5.50;;;2.07;;
31061;SDS011;17724;53.546;9.974;2023-08-31T23:21:16;6.70;;;2.93;;
31061;SDS011;17724;53.546;9.974;2023-08-31T23:25:16;5.57;;;1.63;;
31061;SDS011;17724;53.546;9.974;2023-08-31T23:29:17;7.07;;;2.07;;
31061;SDS011;17724;53.546;9.974;2023-08-31T23:33:17;5.50;;;2.00;;
31061;SDS011;17724;53.546;9.974;2023-08-31T23:37:18;6.23;;;2.60;;
31061;SDS011;17724;53.546;9.974;2023-08-31T23:41:19;5.00;;;1.80;;
31061;SDS011;17724;53.546;9.974;2023-08-31T23:45:20;6.40;;;1.90;;
31061;SDS011;17724;53.546;9.974;2023-08-31T23:49:20;5.37;;;2.10;;
31061;SDS011;17724;53.546;9.974;2023-08-31T23:53:23;6.30;;;2.10;;
31061;SDS011;17724;53.546;9.974;2023-08-31T23:57:24;6.80;;;1.60;;
